<?xml version="1.0" encoding="UTF-8" standalone="no" ?>
<gpx xmlns="http://www.topografix.com/GPX/1/1" xmlns:xsi="http://www.w3.org/2001/XMLSchema-instance" xsi:schemaLocation="http://www.topografix.com/GPX/1/1 http://www.topografix.com/GPX/1/1/gpx.xsd" version="1.1" creator="VisuGPX - https://www.visugpx.com">
  <metadata>
    <name>Etel_RiveGauchePortloroisStCado</name>
    <desc><![CDATA[gnerando idor: 6224340_6533556]]></desc>
  </metadata>
  <trk>
    <name><![CDATA[Etel_StCado2_14.2km-6224340]]></name>
    <extensions>
      <line xmlns="http://www.topografix.com/GPX/gpx_style/0/2">
        <color>00FF00</color>
        <width>4</width>
      </line>
    </extensions>
    <trkseg>
      <trkpt lat="47.68484" lon="-3.18606">
        <ele>1</ele>
        <time>2023-10-30T17:49:32Z</time>
      </trkpt>
      <trkpt lat="47.68416" lon="-3.1867">
        <ele>1</ele>
        <time>2023-10-30T17:51:19Z</time>
      </trkpt>
      <trkpt lat="47.68368" lon="-3.18704">
        <ele>3</ele>
        <time>2023-10-30T17:52:30Z</time>
      </trkpt>
      <trkpt lat="47.68328" lon="-3.18773">
        <ele>4</ele>
        <time>2023-10-30T17:53:52Z</time>
      </trkpt>
      <trkpt lat="47.68301" lon="-3.18882">
        <ele>3</ele>
        <time>2023-10-30T17:55:37Z</time>
      </trkpt>
      <trkpt lat="47.68223" lon="-3.18955">
        <ele>5</ele>
        <time>2023-10-30T17:57:40Z</time>
      </trkpt>
      <trkpt lat="47.68165" lon="-3.18979">
        <ele>6</ele>
        <time>2023-10-30T17:59:00Z</time>
      </trkpt>
      <trkpt lat="47.68108" lon="-3.18972">
        <ele>5</ele>
        <time>2023-10-30T18:00:16Z</time>
      </trkpt>
      <trkpt lat="47.68081" lon="-3.18797">
        <ele>10</ele>
        <time>2023-10-30T18:02:58Z</time>
      </trkpt>
      <trkpt lat="47.6798" lon="-3.18808">
        <ele>7</ele>
        <time>2023-10-30T18:05:13Z</time>
      </trkpt>
      <trkpt lat="47.6773" lon="-3.18779">
        <ele>3</ele>
        <time>2023-10-30T18:10:47Z</time>
      </trkpt>
      <trkpt lat="47.67694" lon="-3.18835">
        <ele>6</ele>
        <time>2023-10-30T18:11:57Z</time>
      </trkpt>
      <trkpt lat="47.67678" lon="-3.18907">
        <ele>8</ele>
        <time>2023-10-30T18:13:05Z</time>
      </trkpt>
      <trkpt lat="47.67688" lon="-3.18979">
        <ele>9</ele>
        <time>2023-10-30T18:14:11Z</time>
      </trkpt>
      <trkpt lat="47.67645" lon="-3.19024">
        <ele>11</ele>
        <time>2023-10-30T18:15:21Z</time>
      </trkpt>
      <trkpt lat="47.67659" lon="-3.19087">
        <ele>11</ele>
        <time>2023-10-30T18:16:21Z</time>
      </trkpt>
      <trkpt lat="47.67708" lon="-3.19145">
        <ele>11</ele>
        <time>2023-10-30T18:17:44Z</time>
      </trkpt>
      <trkpt lat="47.67766" lon="-3.19375">
        <ele>10</ele>
        <time>2023-10-30T18:21:25Z</time>
      </trkpt>
      <trkpt lat="47.67779" lon="-3.19545">
        <ele>6</ele>
        <time>2023-10-30T18:23:59Z</time>
      </trkpt>
      <trkpt lat="47.67677" lon="-3.19559">
        <ele>6</ele>
        <time>2023-10-30T18:26:16Z</time>
      </trkpt>
      <trkpt lat="47.67619" lon="-3.19595">
        <ele>6</ele>
        <time>2023-10-30T18:27:39Z</time>
      </trkpt>
      <trkpt lat="47.67626" lon="-3.19919">
        <ele>3.86</ele>
        <time>2023-10-30T18:32:31Z</time>
      </trkpt>
      <trkpt lat="47.67503" lon="-3.19897">
        <ele>3</ele>
        <time>2023-10-30T18:35:16Z</time>
      </trkpt>
      <trkpt lat="47.67457" lon="-3.19857">
        <ele>3</ele>
        <time>2023-10-30T18:36:27Z</time>
      </trkpt>
      <trkpt lat="47.67452" lon="-3.19766">
        <ele>5</ele>
        <time>2023-10-30T18:37:49Z</time>
      </trkpt>
      <trkpt lat="47.67395" lon="-3.19735">
        <ele>7</ele>
        <time>2023-10-30T18:39:10Z</time>
      </trkpt>
      <trkpt lat="47.67324" lon="-3.19734">
        <ele>7</ele>
        <time>2023-10-30T18:40:45Z</time>
      </trkpt>
      <trkpt lat="47.67242" lon="-3.19942">
        <ele>7</ele>
        <time>2023-10-30T18:44:22Z</time>
      </trkpt>
      <trkpt lat="47.67168" lon="-3.19891">
        <ele>10</ele>
        <time>2023-10-30T18:46:10Z</time>
      </trkpt>
      <trkpt lat="47.67116" lon="-3.19945">
        <ele>8</ele>
        <time>2023-10-30T18:47:35Z</time>
      </trkpt>
      <trkpt lat="47.67171" lon="-3.20082">
        <ele>5</ele>
        <time>2023-10-30T18:49:58Z</time>
      </trkpt>
      <trkpt lat="47.67174" lon="-3.20202">
        <ele>2</ele>
        <time>2023-10-30T18:51:46Z</time>
      </trkpt>
      <trkpt lat="47.67085" lon="-3.2012">
        <ele>5</ele>
        <time>2023-10-30T18:54:06Z</time>
      </trkpt>
      <trkpt lat="47.67023" lon="-3.20133">
        <ele>3</ele>
        <time>2023-10-30T18:55:30Z</time>
      </trkpt>
      <trkpt lat="47.66997" lon="-3.20223">
        <ele>2</ele>
        <time>2023-10-30T18:56:58Z</time>
      </trkpt>
      <trkpt lat="47.67036" lon="-3.2029">
        <ele>1</ele>
        <time>2023-10-30T18:58:17Z</time>
      </trkpt>
      <trkpt lat="47.67032" lon="-3.20327">
        <ele>1</ele>
        <time>2023-10-30T18:58:51Z</time>
      </trkpt>
      <trkpt lat="47.66962" lon="-3.20347">
        <ele>2</ele>
        <time>2023-10-30T19:00:26Z</time>
      </trkpt>
      <trkpt lat="47.66905" lon="-3.20457">
        <ele>4</ele>
        <time>2023-10-30T19:02:31Z</time>
      </trkpt>
      <trkpt lat="47.66951" lon="-3.20525">
        <ele>4</ele>
        <time>2023-10-30T19:03:57Z</time>
      </trkpt>
      <trkpt lat="47.66994" lon="-3.20524">
        <ele>1</ele>
        <time>2023-10-30T19:04:55Z</time>
      </trkpt>
      <trkpt lat="47.66977" lon="-3.20593">
        <ele>3</ele>
        <time>2023-10-30T19:06:01Z</time>
      </trkpt>
      <trkpt lat="47.6702" lon="-3.20657">
        <ele>2</ele>
        <time>2023-10-30T19:07:22Z</time>
      </trkpt>
      <trkpt lat="47.66983" lon="-3.20706">
        <ele>4</ele>
        <time>2023-10-30T19:08:28Z</time>
      </trkpt>
      <trkpt lat="47.66997" lon="-3.20837">
        <ele>1</ele>
        <time>2023-10-30T19:10:27Z</time>
      </trkpt>
      <trkpt lat="47.66873" lon="-3.20884">
        <ele>4</ele>
        <time>2023-10-30T19:13:18Z</time>
      </trkpt>
      <trkpt lat="47.66759" lon="-3.20867">
        <ele>3</ele>
        <time>2023-10-30T19:15:51Z</time>
      </trkpt>
      <trkpt lat="47.66688" lon="-3.20906">
        <ele>1</ele>
        <time>2023-10-30T19:17:32Z</time>
      </trkpt>
      <trkpt lat="47.66656" lon="-3.20796">
        <ele>5</ele>
        <time>2023-10-30T19:19:20Z</time>
      </trkpt>
      <trkpt lat="47.66708" lon="-3.20631">
        <ele>6</ele>
        <time>2023-10-30T19:22:04Z</time>
      </trkpt>
      <trkpt lat="47.66685" lon="-3.20535">
        <ele>6</ele>
        <time>2023-10-30T19:23:35Z</time>
      </trkpt>
      <trkpt lat="47.66671" lon="-3.20446">
        <ele>7</ele>
        <time>2023-10-30T19:24:57Z</time>
      </trkpt>
      <trkpt lat="47.66636" lon="-3.20427">
        <ele>6</ele>
        <time>2023-10-30T19:25:47Z</time>
      </trkpt>
      <trkpt lat="47.66601" lon="-3.20339">
        <ele>4</ele>
        <time>2023-10-30T19:27:19Z</time>
      </trkpt>
      <trkpt lat="47.66626" lon="-3.20281">
        <ele>5</ele>
        <time>2023-10-30T19:28:21Z</time>
      </trkpt>
      <trkpt lat="47.66634" lon="-3.20197">
        <ele>6</ele>
        <time>2023-10-30T19:29:37Z</time>
      </trkpt>
      <trkpt lat="47.66612" lon="-3.20112">
        <ele>6</ele>
        <time>2023-10-30T19:30:59Z</time>
      </trkpt>
      <trkpt lat="47.66574" lon="-3.20166">
        <ele>5</ele>
        <time>2023-10-30T19:32:09Z</time>
      </trkpt>
      <trkpt lat="47.66549" lon="-3.20255">
        <ele>3</ele>
        <time>2023-10-30T19:33:36Z</time>
      </trkpt>
      <trkpt lat="47.66525" lon="-3.20296">
        <ele>3</ele>
        <time>2023-10-30T19:34:24Z</time>
      </trkpt>
      <trkpt lat="47.66504" lon="-3.20241">
        <ele>3</ele>
        <time>2023-10-30T19:35:21Z</time>
      </trkpt>
      <trkpt lat="47.66479" lon="-3.20198">
        <ele>6</ele>
        <time>2023-10-30T19:36:12Z</time>
      </trkpt>
      <trkpt lat="47.66422" lon="-3.20056">
        <ele>5</ele>
        <time>2023-10-30T19:38:41Z</time>
      </trkpt>
      <trkpt lat="47.66499" lon="-3.19994">
        <ele>5</ele>
        <time>2023-10-30T19:40:38Z</time>
      </trkpt>
      <trkpt lat="47.66515" lon="-3.19932">
        <ele>5</ele>
        <time>2023-10-30T19:41:37Z</time>
      </trkpt>
      <trkpt lat="47.66451" lon="-3.19919">
        <ele>4</ele>
        <time>2023-10-30T19:43:04Z</time>
      </trkpt>
      <trkpt lat="47.66441" lon="-3.19706">
        <ele>7</ele>
        <time>2023-10-30T19:46:16Z</time>
      </trkpt>
      <trkpt lat="47.66395" lon="-3.19596">
        <ele>8</ele>
        <time>2023-10-30T19:48:12Z</time>
      </trkpt>
      <trkpt lat="47.66337" lon="-3.19528">
        <ele>7</ele>
        <time>2023-10-30T19:49:51Z</time>
      </trkpt>
      <trkpt lat="47.66332" lon="-3.19408">
        <ele>7</ele>
        <time>2023-10-30T19:51:39Z</time>
      </trkpt>
      <trkpt lat="47.66341" lon="-3.19324">
        <ele>7</ele>
        <time>2023-10-30T19:52:55Z</time>
      </trkpt>
      <trkpt lat="47.66304" lon="-3.19177">
        <ele>6</ele>
        <time>2023-10-30T19:55:16Z</time>
      </trkpt>
      <trkpt lat="47.66324" lon="-3.19106">
        <ele>5</ele>
        <time>2023-10-30T19:56:25Z</time>
      </trkpt>
      <trkpt lat="47.66513" lon="-3.19277">
        <ele>6</ele>
        <time>2023-10-30T20:01:21Z</time>
      </trkpt>
      <trkpt lat="47.66903" lon="-3.19299">
        <ele>9</ele>
        <time>2023-10-30T20:10:01Z</time>
      </trkpt>
      <trkpt lat="47.67056" lon="-3.19528">
        <ele>15</ele>
        <time>2023-10-30T20:14:51Z</time>
      </trkpt>
      <trkpt lat="47.67219" lon="-3.19133">
        <ele>12</ele>
        <time>2023-10-30T20:21:48Z</time>
      </trkpt>
      <trkpt lat="47.67224" lon="-3.19022">
        <ele>13</ele>
        <time>2023-10-30T20:23:28Z</time>
      </trkpt>
      <trkpt lat="47.67326" lon="-3.18889">
        <ele>12</ele>
        <time>2023-10-30T20:26:29Z</time>
      </trkpt>
      <trkpt lat="47.67416" lon="-3.18069">
        <ele>16</ele>
        <time>2023-10-30T20:38:55Z</time>
      </trkpt>
      <trkpt lat="47.6754" lon="-3.1802">
        <ele>12</ele>
        <time>2023-10-30T20:41:46Z</time>
      </trkpt>
      <trkpt lat="47.67697" lon="-3.18054">
        <ele>12</ele>
        <time>2023-10-30T20:45:18Z</time>
      </trkpt>
      <trkpt lat="47.67616" lon="-3.17838">
        <ele>7</ele>
        <time>2023-10-30T20:49:00Z</time>
      </trkpt>
      <trkpt lat="47.67608" lon="-3.17606">
        <ele>6</ele>
        <time>2023-10-30T20:52:29Z</time>
      </trkpt>
      <trkpt lat="47.67643" lon="-3.17406">
        <ele>10</ele>
        <time>2023-10-30T20:55:35Z</time>
      </trkpt>
      <trkpt lat="47.67612" lon="-3.17234">
        <ele>12</ele>
        <time>2023-10-30T20:58:15Z</time>
      </trkpt>
      <trkpt lat="47.67631" lon="-3.17124">
        <ele>11</ele>
        <time>2023-10-30T20:59:57Z</time>
      </trkpt>
      <trkpt lat="47.67639" lon="-3.16994">
        <ele>13</ele>
        <time>2023-10-30T21:01:54Z</time>
      </trkpt>
      <trkpt lat="47.67656" lon="-3.16884">
        <ele>11</ele>
        <time>2023-10-30T21:03:35Z</time>
      </trkpt>
      <trkpt lat="47.67551" lon="-3.16806">
        <ele>10</ele>
        <time>2023-10-30T21:06:12Z</time>
      </trkpt>
      <trkpt lat="47.67552" lon="-3.16717">
        <ele>11</ele>
        <time>2023-10-30T21:07:32Z</time>
      </trkpt>
      <trkpt lat="47.67547" lon="-3.16622">
        <ele>12</ele>
        <time>2023-10-30T21:08:58Z</time>
      </trkpt>
      <trkpt lat="47.67557" lon="-3.16462">
        <ele>14</ele>
        <time>2023-10-30T21:11:22Z</time>
      </trkpt>
      <trkpt lat="47.67682" lon="-3.16398">
        <ele>12</ele>
        <time>2023-10-30T21:14:19Z</time>
      </trkpt>
      <trkpt lat="47.67892" lon="-3.16359">
        <ele>10</ele>
        <time>2023-10-30T21:19:01Z</time>
      </trkpt>
      <trkpt lat="47.67965" lon="-3.16304">
        <ele>6</ele>
        <time>2023-10-30T21:20:50Z</time>
      </trkpt>
      <trkpt lat="47.68014" lon="-3.16224">
        <ele>4</ele>
        <time>2023-10-30T21:22:27Z</time>
      </trkpt>
      <trkpt lat="47.68" lon="-3.16368">
        <ele>4</ele>
        <time>2023-10-30T21:24:38Z</time>
      </trkpt>
      <trkpt lat="47.68019" lon="-3.16547">
        <ele>4</ele>
        <time>2023-10-30T21:27:21Z</time>
      </trkpt>
      <trkpt lat="47.68058" lon="-3.16693">
        <ele>1</ele>
        <time>2023-10-30T21:29:42Z</time>
      </trkpt>
      <trkpt lat="47.68069" lon="-3.16822">
        <ele>1</ele>
        <time>2023-10-30T21:31:39Z</time>
      </trkpt>
      <trkpt lat="47.68123" lon="-3.16841">
        <ele>1</ele>
        <time>2023-10-30T21:32:53Z</time>
      </trkpt>
      <trkpt lat="47.68158" lon="-3.16855">
        <ele>1</ele>
        <time>2023-10-30T21:33:41Z</time>
      </trkpt>
      <trkpt lat="47.68168" lon="-3.16955">
        <ele>2</ele>
        <time>2023-10-30T21:35:12Z</time>
      </trkpt>
      <trkpt lat="47.68233" lon="-3.17125">
        <ele>2</ele>
        <time>2023-10-30T21:38:08Z</time>
      </trkpt>
      <trkpt lat="47.68353" lon="-3.17108">
        <ele>1</ele>
        <time>2023-10-30T21:40:49Z</time>
      </trkpt>
      <trkpt lat="47.68293" lon="-3.17166">
        <ele>1</ele>
        <time>2023-10-30T21:42:24Z</time>
      </trkpt>
      <trkpt lat="47.68239" lon="-3.17196">
        <ele>3</ele>
        <time>2023-10-30T21:43:41Z</time>
      </trkpt>
      <trkpt lat="47.68121" lon="-3.17222">
        <ele>7</ele>
        <time>2023-10-30T21:46:20Z</time>
      </trkpt>
      <trkpt lat="47.68162" lon="-3.17305">
        <ele>9</ele>
        <time>2023-10-30T21:47:53Z</time>
      </trkpt>
      <trkpt lat="47.68136" lon="-3.17571">
        <ele>5</ele>
        <time>2023-10-30T21:51:54Z</time>
      </trkpt>
      <trkpt lat="47.6814" lon="-3.17771">
        <ele>2.9</ele>
        <time>2023-10-30T21:54:54Z</time>
      </trkpt>
      <trkpt lat="47.68171" lon="-3.17928">
        <ele>1</ele>
        <time>2023-10-30T21:57:21Z</time>
      </trkpt>
      <trkpt lat="47.68164" lon="-3.17996">
        <ele>1</ele>
        <time>2023-10-30T21:58:23Z</time>
      </trkpt>
      <trkpt lat="47.68181" lon="-3.18022">
        <ele>1</ele>
        <time>2023-10-30T21:58:55Z</time>
      </trkpt>
      <trkpt lat="47.68182" lon="-3.18082">
        <ele>2</ele>
        <time>2023-10-30T21:59:49Z</time>
      </trkpt>
      <trkpt lat="47.68147" lon="-3.18157">
        <ele>3</ele>
        <time>2023-10-30T22:01:11Z</time>
      </trkpt>
      <trkpt lat="47.68142" lon="-3.18232">
        <ele>4</ele>
        <time>2023-10-30T22:02:19Z</time>
      </trkpt>
      <trkpt lat="47.68166" lon="-3.18333">
        <ele>4</ele>
        <time>2023-10-30T22:03:55Z</time>
      </trkpt>
      <trkpt lat="47.68223" lon="-3.18389">
        <ele>3</ele>
        <time>2023-10-30T22:05:26Z</time>
      </trkpt>
      <trkpt lat="47.68237" lon="-3.18445">
        <ele>3</ele>
        <time>2023-10-30T22:06:20Z</time>
      </trkpt>
      <trkpt lat="47.6827" lon="-3.1839">
        <ele>2</ele>
        <time>2023-10-30T22:07:26Z</time>
      </trkpt>
      <trkpt lat="47.68292" lon="-3.18345">
        <ele>2</ele>
        <time>2023-10-30T22:08:16Z</time>
      </trkpt>
      <trkpt lat="47.6835" lon="-3.18322">
        <ele>2</ele>
        <time>2023-10-30T22:09:36Z</time>
      </trkpt>
      <trkpt lat="47.68451" lon="-3.18344">
        <ele>1</ele>
        <time>2023-10-30T22:11:53Z</time>
      </trkpt>
      <trkpt lat="47.68483" lon="-3.18427">
        <ele>2</ele>
        <time>2023-10-30T22:13:18Z</time>
      </trkpt>
      <trkpt lat="47.68479" lon="-3.18518">
        <ele>2</ele>
        <time>2023-10-30T22:14:40Z</time>
      </trkpt>
      <trkpt lat="47.68577" lon="-3.18549">
        <ele>2</ele>
        <time>2023-10-30T22:16:54Z</time>
      </trkpt>
      <trkpt lat="47.68629" lon="-3.18525">
        <ele>3</ele>
        <time>2023-10-30T22:18:07Z</time>
      </trkpt>
      <trkpt lat="47.68634" lon="-3.1841">
        <ele>3</ele>
        <time>2023-10-30T22:19:50Z</time>
      </trkpt>
      <trkpt lat="47.68693" lon="-3.18372">
        <ele>1</ele>
        <time>2023-10-30T22:21:16Z</time>
      </trkpt>
      <trkpt lat="47.68727" lon="-3.18377">
        <ele>1</ele>
        <time>2023-10-30T22:22:02Z</time>
      </trkpt>
      <trkpt lat="47.68786" lon="-3.1838">
        <time>2023-10-30T22:23:21Z</time>
      </trkpt>
      <trkpt lat="47.68821" lon="-3.18503">
        <ele>1.9</ele>
        <time>2023-10-30T22:25:20Z</time>
      </trkpt>
      <trkpt lat="47.68807" lon="-3.18608">
        <ele>1</ele>
        <time>2023-10-30T22:26:57Z</time>
      </trkpt>
      <trkpt lat="47.68751" lon="-3.18616">
        <ele>1</ele>
        <time>2023-10-30T22:28:12Z</time>
      </trkpt>
      <trkpt lat="47.68701" lon="-3.18598">
        <ele>2</ele>
        <time>2023-10-30T22:29:20Z</time>
      </trkpt>
      <trkpt lat="47.68658" lon="-3.18541">
        <ele>4</ele>
        <time>2023-10-30T22:30:37Z</time>
      </trkpt>
      <trkpt lat="47.68572" lon="-3.18558">
        <ele>2</ele>
        <time>2023-10-30T22:32:33Z</time>
      </trkpt>
      <trkpt lat="47.68526" lon="-3.1855">
        <ele>1</ele>
        <time>2023-10-30T22:33:35Z</time>
      </trkpt>
      <trkpt lat="47.68493" lon="-3.18584">
        <ele>1</ele>
        <time>2023-10-30T22:34:28Z</time>
      </trkpt>
    </trkseg>
  </trk>
</gpx>